sensor_id;sensor_type;location;lat;lon;timestamp;temperature;humidity
57552;DHT22;43379;48.160;14.036;2022-11-20T00:02:03;3.60;99.90
57552;DHT22;43379;48.160;14.036;2022-11-20T00:04:29;3.60;99.90
57552;DHT22;43379;48.160;14.036;2022-11-20T00:06:55;3.40;99.90
57552;DHT22;43379;48.160;14.036;2022-11-20T00:09:20;3.40;99.90
57552;DHT22;43379;48.160;14.036;2022-11-20T00:11:46;3.40;99.90
57552;DHT22;43379;48.160;14.036;2022-11-20T00:14:12;3.40;99.90
57552;DHT22;43379;48.160;14.036;2022-11-20T00:16:37;3.40;99.90
57552;DHT22;43379;48.160;14.036;2022-11-20T00:19:03;3.50;99.90
57552;DHT22;43379;48.160;14.036;2022-11-20T00:21:29;3.40;99.90
57552;DHT22;43379;48.160;14.036;2022-11-20T00:23:57;3.40;99.90
57552;DHT22;43379;48.160;14.036;2022-11-20T00:26:25;3.30;99.90
57552;DHT22;43379;48.160;14.036;2022-11-20T00:28:57;3.40;99.90
57552;DHT22;43379;48.160;14.036;2022-11-20T00:31:22;3.30;99.90
57552;DHT22;43379;48.160;14.036;2022-11-20T00:33:48;3.40;99.90
57552;DHT22;43379;48.160;14.036;2022-11-20T00:36:19;3.40;99.90
57552;DHT22;43379;48.160;14.036;2022-11-20T00:38:45;3.30;99.90
57552;DHT22;43379;48.160;14.036;2022-11-20T00:41:15;3.30;99.90
57552;DHT22;43379;48.160;14.036;2022-11-20T00:43:41;3.30;99.90
57552;DHT22;43379;48.160;14.036;2022-11-20T00:46:10;3.30;99.90
57552;DHT22;43379;48.160;14.036;2022-11-20T00:48:36;3.20;99.90
57552;DHT22;43379;48.160;14.036;2022-11-20T00:51:02;3.30;99.90
57552;DHT22;43379;48.160;14.036;2022-11-20T00:53:28;3.30;99.90
57552;DHT22;43379;48.160;14.036;2022-11-20T00:55:54;3.30;99.90
57552;DHT22;43379;48.160;14.036;2022-11-20T00:58:21;3.30;99.90
57552;DHT22;43379;48.160;14.036;2022-11-20T01:00:47;3.30;99.90
57552;DHT22;43379;48.160;14.036;2022-11-20T01:03:15;3.40;99.90
57552;DHT22;43379;48.160;14.036;2022-11-20T01:05:41;3.40;99.90
57552;DHT22;43379;48.160;14.036;2022-11-20T01:08:07;3.40;99.90
57552;DHT22;43379;48.160;14.036;2022-11-20T01:10:33;3.40;99.90
57552;DHT22;43379;48.160;14.036;2022-11-20T01:12:58;3.50;99.90
57552;DHT22;43379;48.160;14.036;2022-11-20T01:15:43;3.50;99.90
57552;DHT22;43379;48.160;14.036;2022-11-20T01:18:08;3.40;99.90
57552;DHT22;43379;48.160;14.036;2022-11-20T01:20:35;3.30;99.90
57552;DHT22;43379;48.160;14.036;2022-11-20T01:23:02;3.40;99.90
57552;DHT22;43379;48.160;14.036;2022-11-20T01:25:28;3.40;99.90
57552;DHT22;43379;48.160;14.036;2022-11-20T01:27:54;3.40;99.90
57552;DHT22;43379;48.160;14.036;2022-11-20T01:30:19;3.40;99.90
57552;DHT22;43379;48.160;14.036;2022-11-20T01:32:45;3.40;99.90
57552;DHT22;43379;48.160;14.036;2022-11-20T01:35:10;3.50;99.90
57552;DHT22;43379;48.160;14.036;2022-11-20T01:37:36;3.40;99.90
57552;DHT22;43379;48.160;14.036;2022-11-20T01:40:02;3.40;99.90
57552;DHT22;43379;48.160;14.036;2022-11-20T01:42:28;3.40;99.90
57552;DHT22;43379;48.160;14.036;2022-11-20T01:48:13;3.60;99.90
57552;DHT22;43379;48.160;14.036;2022-11-20T01:50:40;3.60;99.90
57552;DHT22;43379;48.160;14.036;2022-11-20T01:53:14;3.60;99.90
57552;DHT22;43379;48.160;14.036;2022-11-20T01:55:47;3.60;99.90
57552;DHT22;43379;48.160;14.036;2022-11-20T01:58:14;3.60;99.90
57552;DHT22;43379;48.160;14.036;2022-11-20T02:00:41;3.60;99.90
57552;DHT22;43379;48.160;14.036;2022-11-20T02:03:10;3.60;99.90
57552;DHT22;43379;48.160;14.036;2022-11-20T02:08:16;3.70;99.90
57552;DHT22;43379;48.160;14.036;2022-11-20T02:10:42;3.70;99.90
57552;DHT22;43379;48.160;14.036;2022-11-20T02:13:08;3.70;99.90
57552;DHT22;43379;48.160;14.036;2022-11-20T02:16:30;3.70;99.90
57552;DHT22;43379;48.160;14.036;2022-11-20T02:18:57;3.70;99.90
57552;DHT22;43379;48.160;14.036;2022-11-20T02:21:33;3.80;99.90
57552;DHT22;43379;48.160;14.036;2022-11-20T02:24:15;3.80;99.90
57552;DHT22;43379;48.160;14.036;2022-11-20T02:27:02;3.80;99.90
57552;DHT22;43379;48.160;14.036;2022-11-20T02:29:42;3.80;99.90
57552;DHT22;43379;48.160;14.036;2022-11-20T02:32:20;3.80;99.90
57552;DHT22;43379;48.160;14.036;2022-11-20T02:34:46;3.80;99.90
57552;DHT22;43379;48.160;14.036;2022-11-20T02:37:12;3.80;99.90
57552;DHT22;43379;48.160;14.036;2022-11-20T02:39:38;3.80;99.90
57552;DHT22;43379;48.160;14.036;2022-11-20T02:42:05;3.80;99.90
57552;DHT22;43379;48.160;14.036;2022-11-20T02:44:30;3.80;99.90
57552;DHT22;43379;48.160;14.036;2022-11-20T02:46:59;3.80;99.90
57552;DHT22;43379;48.160;14.036;2022-11-20T02:49:25;3.80;99.90
57552;DHT22;43379;48.160;14.036;2022-11-20T02:51:51;3.80;99.90
57552;DHT22;43379;48.160;14.036;2022-11-20T02:54:17;3.80;99.90
57552;DHT22;43379;48.160;14.036;2022-11-20T02:56:43;3.80;99.90
57552;DHT22;43379;48.160;14.036;2022-11-20T02:59:09;3.80;99.90
57552;DHT22;43379;48.160;14.036;2022-11-20T03:01:35;3.70;99.90
57552;DHT22;43379;48.160;14.036;2022-11-20T03:04:01;3.70;99.90
57552;DHT22;43379;48.160;14.036;2022-11-20T03:06:27;3.70;99.90
57552;DHT22;43379;48.160;14.036;2022-11-20T03:08:52;3.70;99.90
57552;DHT22;43379;48.160;14.036;2022-11-20T03:11:18;3.70;99.90
57552;DHT22;43379;48.160;14.036;2022-11-20T03:13:43;3.70;99.90
57552;DHT22;43379;48.160;14.036;2022-11-20T03:16:15;3.70;99.90
57552;DHT22;43379;48.160;14.036;2022-11-20T03:18:42;3.70;99.90
57552;DHT22;43379;48.160;14.036;2022-11-20T03:21:09;3.80;99.90
57552;DHT22;43379;48.160;14.036;2022-11-20T03:23:35;3.80;99.90
57552;DHT22;43379;48.160;14.036;2022-11-20T03:26:28;3.80;99.90
57552;DHT22;43379;48.160;14.036;2022-11-20T03:29:02;3.80;99.90
57552;DHT22;43379;48.160;14.036;2022-11-20T03:34:04;3.80;99.90
57552;DHT22;43379;48.160;14.036;2022-11-20T03:36:30;3.90;99.90
57552;DHT22;43379;48.160;14.036;2022-11-20T03:38:57;3.80;99.90
57552;DHT22;43379;48.160;14.036;2022-11-20T03:41:28;3.90;99.90
57552;DHT22;43379;48.160;14.036;2022-11-20T03:43:58;3.80;99.90
57552;DHT22;43379;48.160;14.036;2022-11-20T03:46:25;3.90;99.90
57552;DHT22;43379;48.160;14.036;2022-11-20T03:48:52;3.80;99.90
57552;DHT22;43379;48.160;14.036;2022-11-20T03:51:22;3.80;99.90
57552;DHT22;43379;48.160;14.036;2022-11-20T03:53:49;3.80;99.90
57552;DHT22;43379;48.160;14.036;2022-11-20T03:56:17;3.80;99.90
57552;DHT22;43379;48.160;14.036;2022-11-20T03:58:43;3.80;99.90
57552;DHT22;43379;48.160;14.036;2022-11-20T04:01:14;3.70;99.90
57552;DHT22;43379;48.160;14.036;2022-11-20T04:03:42;3.70;99.90
57552;DHT22;43379;48.160;14.036;2022-11-20T04:06:13;3.70;99.90
57552;DHT22;43379;48.160;14.036;2022-11-20T04:08:40;3.70;99.90
57552;DHT22;43379;48.160;14.036;2022-11-20T04:11:27;3.70;99.90
57552;DHT22;43379;48.160;14.036;2022-11-20T04:14:04;3.70;99.90
57552;DHT22;43379;48.160;14.036;2022-11-20T04:16:32;3.70;99.90
57552;DHT22;43379;48.160;14.036;2022-11-20T04:19:00;3.70;99.90
57552;DHT22;43379;48.160;14.036;2022-11-20T04:21:26;3.70;99.90
57552;DHT22;43379;48.160;14.036;2022-11-20T04:23:52;3.70;99.90
57552;DHT22;43379;48.160;14.036;2022-11-20T04:26:19;3.70;99.90
57552;DHT22;43379;48.160;14.036;2022-11-20T04:28:45;3.70;99.90
57552;DHT22;43379;48.160;14.036;2022-11-20T04:31:12;3.80;99.90
57552;DHT22;43379;48.160;14.036;2022-11-20T04:33:39;3.80;99.90
57552;DHT22;43379;48.160;14.036;2022-11-20T04:36:06;3.80;99.90
57552;DHT22;43379;48.160;14.036;2022-11-20T04:38:32;3.80;99.90
57552;DHT22;43379;48.160;14.036;2022-11-20T04:41:00;3.80;99.90
57552;DHT22;43379;48.160;14.036;2022-11-20T04:43:26;3.80;99.90
57552;DHT22;43379;48.160;14.036;2022-11-20T04:45:53;3.80;99.90
57552;DHT22;43379;48.160;14.036;2022-11-20T04:48:19;3.80;99.90
57552;DHT22;43379;48.160;14.036;2022-11-20T04:50:45;3.80;99.90
57552;DHT22;43379;48.160;14.036;2022-11-20T04:53:10;3.80;99.90
57552;DHT22;43379;48.160;14.036;2022-11-20T04:55:36;3.80;99.90
57552;DHT22;43379;48.160;14.036;2022-11-20T04:58:02;3.80;99.90
57552;DHT22;43379;48.160;14.036;2022-11-20T05:00:27;3.80;99.90
57552;DHT22;43379;48.160;14.036;2022-11-20T05:02:53;3.80;99.90
57552;DHT22;43379;48.160;14.036;2022-11-20T05:05:19;3.80;99.90
57552;DHT22;43379;48.160;14.036;2022-11-20T05:07:44;3.80;99.90
57552;DHT22;43379;48.160;14.036;2022-11-20T05:10:10;3.80;99.90
57552;DHT22;43379;48.160;14.036;2022-11-20T05:12:35;3.80;99.90
57552;DHT22;43379;48.160;14.036;2022-11-20T05:15:01;3.80;99.90
57552;DHT22;43379;48.160;14.036;2022-11-20T05:17:27;3.70;99.90
57552;DHT22;43379;48.160;14.036;2022-11-20T05:19:52;3.70;99.90
57552;DHT22;43379;48.160;14.036;2022-11-20T05:22:18;3.80;99.90
57552;DHT22;43379;48.160;14.036;2022-11-20T05:24:43;3.80;99.90
57552;DHT22;43379;48.160;14.036;2022-11-20T05:27:09;3.80;99.90
57552;DHT22;43379;48.160;14.036;2022-11-20T05:29:35;3.80;99.90
57552;DHT22;43379;48.160;14.036;2022-11-20T05:32:00;3.80;99.90
57552;DHT22;43379;48.160;14.036;2022-11-20T05:34:26;3.80;99.90
57552;DHT22;43379;48.160;14.036;2022-11-20T05:36:52;3.80;99.90
57552;DHT22;43379;48.160;14.036;2022-11-20T05:39:17;3.80;99.90
57552;DHT22;43379;48.160;14.036;2022-11-20T05:41:43;3.80;99.90
57552;DHT22;43379;48.160;14.036;2022-11-20T05:44:12;3.70;99.90
57552;DHT22;43379;48.160;14.036;2022-11-20T05:46:38;3.80;99.90
57552;DHT22;43379;48.160;14.036;2022-11-20T05:49:04;3.70;99.90
57552;DHT22;43379;48.160;14.036;2022-11-20T05:51:29;3.80;99.90
57552;DHT22;43379;48.160;14.036;2022-11-20T05:53:58;3.80;99.90
57552;DHT22;43379;48.160;14.036;2022-11-20T05:56:24;3.80;99.90
57552;DHT22;43379;48.160;14.036;2022-11-20T05:58:50;3.80;99.90
57552;DHT22;43379;48.160;14.036;2022-11-20T06:01:21;3.80;99.90
57552;DHT22;43379;48.160;14.036;2022-11-20T06:03:48;3.80;99.90
57552;DHT22;43379;48.160;14.036;2022-11-20T06:06:16;3.80;99.90
57552;DHT22;43379;48.160;14.036;2022-11-20T06:08:43;3.80;99.90
57552;DHT22;43379;48.160;14.036;2022-11-20T06:11:11;3.80;99.90
57552;DHT22;43379;48.160;14.036;2022-11-20T06:13:38;3.90;99.90
57552;DHT22;43379;48.160;14.036;2022-11-20T06:16:04;3.80;99.90
57552;DHT22;43379;48.160;14.036;2022-11-20T06:18:30;3.80;99.90
57552;DHT22;43379;48.160;14.036;2022-11-20T06:23:36;3.80;99.90
57552;DHT22;43379;48.160;14.036;2022-11-20T06:26:08;3.70;99.90
57552;DHT22;43379;48.160;14.036;2022-11-20T06:28:34;3.80;99.90
57552;DHT22;43379;48.160;14.036;2022-11-20T06:31:00;3.80;99.90
57552;DHT22;43379;48.160;14.036;2022-11-20T06:33:26;3.80;99.90
57552;DHT22;43379;48.160;14.036;2022-11-20T06:35:55;3.80;99.90
57552;DHT22;43379;48.160;14.036;2022-11-20T06:38:21;3.80;99.90
57552;DHT22;43379;48.160;14.036;2022-11-20T06:40:46;3.90;99.90
57552;DHT22;43379;48.160;14.036;2022-11-20T06:43:12;3.90;99.90
57552;DHT22;43379;48.160;14.036;2022-11-20T06:45:38;3.90;99.90
57552;DHT22;43379;48.160;14.036;2022-11-20T06:48:03;3.90;99.90
57552;DHT22;43379;48.160;14.036;2022-11-20T06:50:29;3.90;99.90
57552;DHT22;43379;48.160;14.036;2022-11-20T06:52:55;3.90;99.90
57552;DHT22;43379;48.160;14.036;2022-11-20T06:55:21;4.00;99.90
57552;DHT22;43379;48.160;14.036;2022-11-20T06:57:47;4.00;99.90
57552;DHT22;43379;48.160;14.036;2022-11-20T07:00:13;4.00;99.90
57552;DHT22;43379;48.160;14.036;2022-11-20T07:02:39;4.00;99.90
57552;DHT22;43379;48.160;14.036;2022-11-20T07:05:04;4.00;99.90
57552;DHT22;43379;48.160;14.036;2022-11-20T07:07:30;4.00;99.90
57552;DHT22;43379;48.160;14.036;2022-11-20T07:09:56;4.00;99.90
57552;DHT22;43379;48.160;14.036;2022-11-20T07:12:21;4.00;99.90
57552;DHT22;43379;48.160;14.036;2022-11-20T07:14:47;4.10;99.90
57552;DHT22;43379;48.160;14.036;2022-11-20T07:17:13;4.10;99.90
57552;DHT22;43379;48.160;14.036;2022-11-20T07:19:38;4.10;99.90
57552;DHT22;43379;48.160;14.036;2022-11-20T07:22:04;4.10;99.90
57552;DHT22;43379;48.160;14.036;2022-11-20T07:24:30;4.20;99.90
57552;DHT22;43379;48.160;14.036;2022-11-20T07:26:55;4.20;99.90
57552;DHT22;43379;48.160;14.036;2022-11-20T07:29:21;4.10;99.90
57552;DHT22;43379;48.160;14.036;2022-11-20T07:31:46;4.20;99.90
57552;DHT22;43379;48.160;14.036;2022-11-20T07:34:12;4.20;99.90
57552;DHT22;43379;48.160;14.036;2022-11-20T07:36:38;4.20;99.90
57552;DHT22;43379;48.160;14.036;2022-11-20T07:39:04;4.20;99.90
57552;DHT22;43379;48.160;14.036;2022-11-20T07:41:30;4.20;99.90
57552;DHT22;43379;48.160;14.036;2022-11-20T07:43:56;4.20;99.90
57552;DHT22;43379;48.160;14.036;2022-11-20T07:46:22;4.20;99.90
57552;DHT22;43379;48.160;14.036;2022-11-20T07:48:48;4.30;99.90
57552;DHT22;43379;48.160;14.036;2022-11-20T07:51:13;4.30;99.90
57552;DHT22;43379;48.160;14.036;2022-11-20T07:53:39;4.30;99.90
57552;DHT22;43379;48.160;14.036;2022-11-20T07:56:06;4.30;99.90
57552;DHT22;43379;48.160;14.036;2022-11-20T07:58:32;4.40;99.90
57552;DHT22;43379;48.160;14.036;2022-11-20T08:01:04;4.40;99.90
57552;DHT22;43379;48.160;14.036;2022-11-20T08:03:30;4.40;99.90
57552;DHT22;43379;48.160;14.036;2022-11-20T08:05:59;4.40;99.90
57552;DHT22;43379;48.160;14.036;2022-11-20T08:08:26;4.50;99.90
57552;DHT22;43379;48.160;14.036;2022-11-20T08:10:52;4.50;99.90
57552;DHT22;43379;48.160;14.036;2022-11-20T08:13:18;4.50;99.90
57552;DHT22;43379;48.160;14.036;2022-11-20T08:16:02;4.50;99.90
57552;DHT22;43379;48.160;14.036;2022-11-20T08:18:27;4.60;99.90
57552;DHT22;43379;48.160;14.036;2022-11-20T08:20:53;4.50;99.90
57552;DHT22;43379;48.160;14.036;2022-11-20T08:23:19;4.40;99.90
57552;DHT22;43379;48.160;14.036;2022-11-20T08:25:49;4.40;99.90
57552;DHT22;43379;48.160;14.036;2022-11-20T08:28:15;4.50;99.90
57552;DHT22;43379;48.160;14.036;2022-11-20T08:30:40;4.60;99.90
57552;DHT22;43379;48.160;14.036;2022-11-20T08:33:08;4.60;99.90
57552;DHT22;43379;48.160;14.036;2022-11-20T08:35:38;4.60;99.90
57552;DHT22;43379;48.160;14.036;2022-11-20T08:38:04;4.60;99.90
57552;DHT22;43379;48.160;14.036;2022-11-20T08:40:31;4.70;99.90
57552;DHT22;43379;48.160;14.036;2022-11-20T08:42:57;4.80;99.90
57552;DHT22;43379;48.160;14.036;2022-11-20T08:45:23;4.90;99.90
57552;DHT22;43379;48.160;14.036;2022-11-20T08:47:49;4.90;99.90
57552;DHT22;43379;48.160;14.036;2022-11-20T08:50:16;5.00;99.90
57552;DHT22;43379;48.160;14.036;2022-11-20T08:52:42;5.00;99.90
57552;DHT22;43379;48.160;14.036;2022-11-20T08:55:08;5.10;99.90
57552;DHT22;43379;48.160;14.036;2022-11-20T08:57:35;5.10;99.90
57552;DHT22;43379;48.160;14.036;2022-11-20T09:00:06;5.20;99.90
57552;DHT22;43379;48.160;14.036;2022-11-20T09:02:34;5.30;99.90
57552;DHT22;43379;48.160;14.036;2022-11-20T09:05:00;5.70;99.90
57552;DHT22;43379;48.160;14.036;2022-11-20T09:07:28;5.90;99.90
57552;DHT22;43379;48.160;14.036;2022-11-20T09:09:54;6.10;99.90
57552;DHT22;43379;48.160;14.036;2022-11-20T09:12:19;6.60;99.90
57552;DHT22;43379;48.160;14.036;2022-11-20T09:14:45;6.80;99.90
57552;DHT22;43379;48.160;14.036;2022-11-20T09:17:11;7.00;99.90
57552;DHT22;43379;48.160;14.036;2022-11-20T09:19:39;7.20;99.90
57552;DHT22;43379;48.160;14.036;2022-11-20T09:22:05;7.40;99.90
57552;DHT22;43379;48.160;14.036;2022-11-20T09:24:30;7.50;99.90
57552;DHT22;43379;48.160;14.036;2022-11-20T09:26:56;8.00;99.90
57552;DHT22;43379;48.160;14.036;2022-11-20T09:29:22;9.10;99.90
57552;DHT22;43379;48.160;14.036;2022-11-20T09:31:47;10.40;99.90
57552;DHT22;43379;48.160;14.036;2022-11-20T09:34:13;11.70;99.90
57552;DHT22;43379;48.160;14.036;2022-11-20T09:36:39;12.70;99.90
57552;DHT22;43379;48.160;14.036;2022-11-20T09:39:04;13.50;99.90
57552;DHT22;43379;48.160;14.036;2022-11-20T09:44:13;14.20;99.90
57552;DHT22;43379;48.160;14.036;2022-11-20T09:47:07;14.60;97.10
57552;DHT22;43379;48.160;14.036;2022-11-20T09:52:22;13.90;97.80
57552;DHT22;43379;48.160;14.036;2022-11-20T09:54:52;13.60;97.00
57552;DHT22;43379;48.160;14.036;2022-11-20T09:57:25;13.20;98.10
57552;DHT22;43379;48.160;14.036;2022-11-20T09:59:58;12.90;98.20
57552;DHT22;43379;48.160;14.036;2022-11-20T10:02:35;12.80;99.20
57552;DHT22;43379;48.160;14.036;2022-11-20T10:05:15;12.50;98.60
57552;DHT22;43379;48.160;14.036;2022-11-20T10:07:53;12.50;99.50
57552;DHT22;43379;48.160;14.036;2022-11-20T10:10:31;12.20;99.30
57552;DHT22;43379;48.160;14.036;2022-11-20T10:13:20;12.10;99.80
57552;DHT22;43379;48.160;14.036;2022-11-20T10:16:21;11.90;99.60
57552;DHT22;43379;48.160;14.036;2022-11-20T10:19:08;11.90;99.90
57552;DHT22;43379;48.160;14.036;2022-11-20T10:30:11;11.70;99.90
57552;DHT22;43379;48.160;14.036;2022-11-20T10:32:40;11.70;99.90
57552;DHT22;43379;48.160;14.036;2022-11-20T10:38:00;11.70;99.90
57552;DHT22;43379;48.160;14.036;2022-11-20T10:43:00;11.70;99.90
57552;DHT22;43379;48.160;14.036;2022-11-20T10:45:31;11.60;99.90
57552;DHT22;43379;48.160;14.036;2022-11-20T10:48:12;11.60;99.90
57552;DHT22;43379;48.160;14.036;2022-11-20T10:50:48;11.50;99.90
57552;DHT22;43379;48.160;14.036;2022-11-20T10:55:58;11.60;99.90
57552;DHT22;43379;48.160;14.036;2022-11-20T10:58:37;11.80;99.90
57552;DHT22;43379;48.160;14.036;2022-11-20T11:01:06;11.90;99.30
57552;DHT22;43379;48.160;14.036;2022-11-20T11:03:38;11.80;99.20
57552;DHT22;43379;48.160;14.036;2022-11-20T11:06:18;11.90;99.40
57552;DHT22;43379;48.160;14.036;2022-11-20T11:08:47;11.80;98.60
57552;DHT22;43379;48.160;14.036;2022-11-20T11:11:26;11.70;98.20
57552;DHT22;43379;48.160;14.036;2022-11-20T11:13:53;11.60;98.00
57552;DHT22;43379;48.160;14.036;2022-11-20T11:16:26;11.50;98.30
57552;DHT22;43379;48.160;14.036;2022-11-20T11:19:03;11.30;98.00
57552;DHT22;43379;48.160;14.036;2022-11-20T11:21:29;11.20;98.70
57552;DHT22;43379;48.160;14.036;2022-11-20T11:24:01;11.10;97.90
57552;DHT22;43379;48.160;14.036;2022-11-20T11:26:27;10.90;98.00
57552;DHT22;43379;48.160;14.036;2022-11-20T11:29:01;10.80;98.80
57552;DHT22;43379;48.160;14.036;2022-11-20T11:31:36;10.80;98.00
57552;DHT22;43379;48.160;14.036;2022-11-20T11:34:13;10.70;98.40
57552;DHT22;43379;48.160;14.036;2022-11-20T11:36:39;10.60;98.60
57552;DHT22;43379;48.160;14.036;2022-11-20T11:39:11;10.60;98.70
57552;DHT22;43379;48.160;14.036;2022-11-20T11:41:40;10.50;98.80
57552;DHT22;43379;48.160;14.036;2022-11-20T11:44:21;10.50;98.30
57552;DHT22;43379;48.160;14.036;2022-11-20T11:47:21;10.50;97.80
57552;DHT22;43379;48.160;14.036;2022-11-20T11:49:48;10.40;98.80
57552;DHT22;43379;48.160;14.036;2022-11-20T11:52:20;10.50;98.40
57552;DHT22;43379;48.160;14.036;2022-11-20T11:54:56;10.50;99.00
57552;DHT22;43379;48.160;14.036;2022-11-20T11:57:24;10.50;99.10
57552;DHT22;43379;48.160;14.036;2022-11-20T12:00:00;10.60;98.70
57552;DHT22;43379;48.160;14.036;2022-11-20T12:07:51;10.50;98.70
57552;DHT22;43379;48.160;14.036;2022-11-20T12:13:02;10.50;98.50
57552;DHT22;43379;48.160;14.036;2022-11-20T12:15:31;10.40;98.80
57552;DHT22;43379;48.160;14.036;2022-11-20T12:17:57;10.40;98.80
57552;DHT22;43379;48.160;14.036;2022-11-20T12:20:27;10.30;99.00
57552;DHT22;43379;48.160;14.036;2022-11-20T12:25:35;10.20;98.90
57552;DHT22;43379;48.160;14.036;2022-11-20T12:28:44;10.20;98.90
57552;DHT22;43379;48.160;14.036;2022-11-20T12:36:40;10.10;98.80
57552;DHT22;43379;48.160;14.036;2022-11-20T12:48:19;10.00;99.10
57552;DHT22;43379;48.160;14.036;2022-11-20T12:54:15;10.00;99.30
57552;DHT22;43379;48.160;14.036;2022-11-20T12:57:07;10.10;99.40
57552;DHT22;43379;48.160;14.036;2022-11-20T13:05:50;10.10;99.30
57552;DHT22;43379;48.160;14.036;2022-11-20T13:08:23;10.10;99.20
57552;DHT22;43379;48.160;14.036;2022-11-20T13:13:43;10.00;98.60
57552;DHT22;43379;48.160;14.036;2022-11-20T13:18:56;10.00;98.20
57552;DHT22;43379;48.160;14.036;2022-11-20T13:26:43;10.00;98.00
57552;DHT22;43379;48.160;14.036;2022-11-20T13:29:16;9.90;98.60
57552;DHT22;43379;48.160;14.036;2022-11-20T13:31:44;9.90;98.60
57552;DHT22;43379;48.160;14.036;2022-11-20T13:34:31;9.90;98.70
57552;DHT22;43379;48.160;14.036;2022-11-20T13:36:58;9.90;98.50
57552;DHT22;43379;48.160;14.036;2022-11-20T13:39:34;9.90;98.80
57552;DHT22;43379;48.160;14.036;2022-11-20T13:42:02;9.90;98.70
57552;DHT22;43379;48.160;14.036;2022-11-20T13:44:51;9.80;98.80
57552;DHT22;43379;48.160;14.036;2022-11-20T13:47:28;9.80;98.40
57552;DHT22;43379;48.160;14.036;2022-11-20T13:49:57;9.80;98.30
57552;DHT22;43379;48.160;14.036;2022-11-20T13:55:12;9.80;98.50
57552;DHT22;43379;48.160;14.036;2022-11-20T14:00:55;9.80;98.80
57552;DHT22;43379;48.160;14.036;2022-11-20T14:03:23;9.80;98.60
57552;DHT22;43379;48.160;14.036;2022-11-20T14:05:55;9.80;98.70
57552;DHT22;43379;48.160;14.036;2022-11-20T14:08:38;9.80;98.60
57552;DHT22;43379;48.160;14.036;2022-11-20T14:11:28;9.80;98.50
57552;DHT22;43379;48.160;14.036;2022-11-20T14:14:00;9.70;98.50
57552;DHT22;43379;48.160;14.036;2022-11-20T14:16:30;9.70;98.60
57552;DHT22;43379;48.160;14.036;2022-11-20T14:18:58;9.70;98.70
57552;DHT22;43379;48.160;14.036;2022-11-20T14:21:40;9.70;98.60
57552;DHT22;43379;48.160;14.036;2022-11-20T14:24:06;9.70;98.90
57552;DHT22;43379;48.160;14.036;2022-11-20T14:26:37;9.70;99.00
57552;DHT22;43379;48.160;14.036;2022-11-20T14:29:22;9.70;98.90
57552;DHT22;43379;48.160;14.036;2022-11-20T14:31:52;9.60;98.90
57552;DHT22;43379;48.160;14.036;2022-11-20T14:34:21;9.60;98.90
57552;DHT22;43379;48.160;14.036;2022-11-20T14:36:47;9.60;99.00
57552;DHT22;43379;48.160;14.036;2022-11-20T14:39:21;9.50;98.90
57552;DHT22;43379;48.160;14.036;2022-11-20T14:41:53;9.50;99.10
57552;DHT22;43379;48.160;14.036;2022-11-20T14:44:30;9.50;99.10
57552;DHT22;43379;48.160;14.036;2022-11-20T14:46:57;9.50;99.20
57552;DHT22;43379;48.160;14.036;2022-11-20T14:49:24;9.50;99.40
57552;DHT22;43379;48.160;14.036;2022-11-20T14:52:02;9.40;99.30
57552;DHT22;43379;48.160;14.036;2022-11-20T14:54:46;9.40;99.50
57552;DHT22;43379;48.160;14.036;2022-11-20T14:59:50;9.40;99.50
57552;DHT22;43379;48.160;14.036;2022-11-20T15:02:16;9.40;99.70
57552;DHT22;43379;48.160;14.036;2022-11-20T15:04:59;9.40;99.70
57552;DHT22;43379;48.160;14.036;2022-11-20T15:07:32;9.40;99.70
57552;DHT22;43379;48.160;14.036;2022-11-20T15:10:01;9.40;99.90
57552;DHT22;43379;48.160;14.036;2022-11-20T15:12:27;9.40;99.80
57552;DHT22;43379;48.160;14.036;2022-11-20T15:14:52;9.30;99.70
57552;DHT22;43379;48.160;14.036;2022-11-20T15:17:18;9.30;99.80
57552;DHT22;43379;48.160;14.036;2022-11-20T15:19:44;9.30;99.90
57552;DHT22;43379;48.160;14.036;2022-11-20T15:22:12;9.30;99.90
57552;DHT22;43379;48.160;14.036;2022-11-20T15:24:41;9.30;99.90
57552;DHT22;43379;48.160;14.036;2022-11-20T15:27:08;9.30;99.80
57552;DHT22;43379;48.160;14.036;2022-11-20T15:29:34;9.20;99.80
57552;DHT22;43379;48.160;14.036;2022-11-20T15:32:00;9.20;99.80
57552;DHT22;43379;48.160;14.036;2022-11-20T15:34:26;9.20;99.90
57552;DHT22;43379;48.160;14.036;2022-11-20T15:36:52;9.20;99.90
57552;DHT22;43379;48.160;14.036;2022-11-20T15:39:18;9.20;99.80
57552;DHT22;43379;48.160;14.036;2022-11-20T15:41:44;9.20;99.80
57552;DHT22;43379;48.160;14.036;2022-11-20T15:44:09;9.20;99.90
57552;DHT22;43379;48.160;14.036;2022-11-20T15:46:41;9.10;99.90
57552;DHT22;43379;48.160;14.036;2022-11-20T15:49:13;9.10;99.90
57552;DHT22;43379;48.160;14.036;2022-11-20T15:51:42;9.00;99.90
57552;DHT22;43379;48.160;14.036;2022-11-20T15:56:38;8.80;99.90
57552;DHT22;43379;48.160;14.036;2022-11-20T15:59:04;8.80;99.90
57552;DHT22;43379;48.160;14.036;2022-11-20T16:01:30;8.70;99.90
57552;DHT22;43379;48.160;14.036;2022-11-20T16:03:56;8.70;99.90
57552;DHT22;43379;48.160;14.036;2022-11-20T16:06:21;8.70;99.90
57552;DHT22;43379;48.160;14.036;2022-11-20T16:08:47;8.70;99.90
57552;DHT22;43379;48.160;14.036;2022-11-20T16:11:15;8.60;99.90
57552;DHT22;43379;48.160;14.036;2022-11-20T16:13:41;8.70;99.90
57552;DHT22;43379;48.160;14.036;2022-11-20T16:16:29;8.70;99.90
57552;DHT22;43379;48.160;14.036;2022-11-20T16:18:57;8.60;99.90
57552;DHT22;43379;48.160;14.036;2022-11-20T16:21:23;8.60;99.90
57552;DHT22;43379;48.160;14.036;2022-11-20T16:24:05;8.70;99.90
57552;DHT22;43379;48.160;14.036;2022-11-20T16:26:32;8.60;99.90
57552;DHT22;43379;48.160;14.036;2022-11-20T16:29:03;8.60;99.90
57552;DHT22;43379;48.160;14.036;2022-11-20T16:31:29;8.60;99.90
57552;DHT22;43379;48.160;14.036;2022-11-20T16:34:00;8.60;99.90
57552;DHT22;43379;48.160;14.036;2022-11-20T16:36:27;8.60;99.90
57552;DHT22;43379;48.160;14.036;2022-11-20T16:38:55;8.60;99.90
57552;DHT22;43379;48.160;14.036;2022-11-20T16:41:22;8.50;99.90
57552;DHT22;43379;48.160;14.036;2022-11-20T16:43:55;8.50;99.90
57552;DHT22;43379;48.160;14.036;2022-11-20T16:46:31;8.50;99.90
57552;DHT22;43379;48.160;14.036;2022-11-20T16:49:02;8.60;99.90
57552;DHT22;43379;48.160;14.036;2022-11-20T16:51:30;8.50;99.90
57552;DHT22;43379;48.160;14.036;2022-11-20T16:53:56;8.50;99.90
57552;DHT22;43379;48.160;14.036;2022-11-20T16:56:24;8.50;99.90
57552;DHT22;43379;48.160;14.036;2022-11-20T16:58:51;8.50;99.90
57552;DHT22;43379;48.160;14.036;2022-11-20T17:01:20;8.60;99.90
57552;DHT22;43379;48.160;14.036;2022-11-20T17:03:52;8.60;99.90
57552;DHT22;43379;48.160;14.036;2022-11-20T17:06:20;8.60;99.90
57552;DHT22;43379;48.160;14.036;2022-11-20T17:08:46;8.60;99.90
57552;DHT22;43379;48.160;14.036;2022-11-20T17:11:14;8.60;99.90